createdAt,value
2018-09-29T00:00:53.930Z,46.99
2018-09-29T00:03:23.043Z,44.48
2018-09-29T00:05:52.380Z,44.81
2018-09-29T00:08:21.483Z,45.30
2018-09-29T00:10:50.763Z,45.67
2018-09-29T00:13:19.947Z,45.29
2018-09-29T00:15:49.019Z,45.62
2018-09-29T00:18:18.096Z,46.12
2018-09-29T00:20:47.447Z,46.10
2018-09-29T00:23:16.502Z,46.59
2018-09-29T00:25:45.482Z,46.25
2018-09-29T00:28:14.636Z,46.42
2018-09-29T00:30:43.863Z,48.10
2018-09-29T00:33:12.816Z,48.45
2018-09-29T00:35:41.880Z,49.36
2018-09-29T00:38:11.201Z,48.03
2018-09-29T00:40:40.212Z,46.75
2018-09-29T00:43:09.366Z,47.70
2018-09-29T00:45:38.595Z,47.77
2018-09-29T00:48:07.607Z,47.87
2018-09-29T00:50:36.988Z,47.36
2018-09-29T00:53:06.004Z,47.13
2018-09-29T00:55:35.323Z,47.43
2018-09-29T00:58:04.501Z,47.56
2018-09-29T01:00:33.695Z,47.78
2018-09-29T01:03:02.829Z,49.38
2018-09-29T01:05:32.027Z,49.76
2018-09-29T01:08:01.125Z,50.66
2018-09-29T01:10:30.175Z,49.38
2018-09-29T01:12:59.409Z,50.08
2018-09-29T01:15:28.408Z,50.91
2018-09-29T01:17:57.659Z,49.74
2018-09-29T01:20:26.971Z,50.21
2018-09-29T01:22:56.251Z,50.39
2018-09-29T01:25:25.591Z,49.79
2018-09-29T01:27:54.804Z,49.66
2018-09-29T01:30:24.306Z,50.67
2018-09-29T01:32:53.236Z,50.15
2018-09-29T01:35:22.604Z,49.12
2018-09-29T01:37:51.920Z,49.18
2018-09-29T01:40:21.287Z,48.87
2018-09-29T01:42:50.530Z,49.80
2018-09-29T01:45:19.662Z,50.62
2018-09-29T01:47:48.591Z,50.35
2018-09-29T01:50:17.576Z,48.52
2018-09-29T01:52:46.862Z,48.73
2018-09-29T01:55:15.901Z,49.04
2018-09-29T01:57:45.115Z,49.12
2018-09-29T02:00:14.143Z,49.18
2018-09-29T02:02:43.406Z,49.62
2018-09-29T02:05:12.564Z,50.34
2018-09-29T02:07:41.853Z,50.40
2018-09-29T02:10:11.360Z,51.43
2018-09-29T02:12:40.297Z,50.45
2018-09-29T02:15:09.671Z,50.83
2018-09-29T02:17:38.988Z,51.51
2018-09-29T02:20:08.239Z,51.81
2018-09-29T02:22:37.179Z,51.18
2018-09-29T02:25:06.526Z,51.36
2018-09-29T02:27:35.395Z,51.66
2018-09-29T02:30:04.715Z,51.14
2018-09-29T02:32:33.784Z,50.77
2018-09-29T02:35:02.909Z,51.12
2018-09-29T02:37:32.291Z,50.75
2018-09-29T02:40:01.556Z,50.46
2018-09-29T02:42:30.871Z,49.65
2018-09-29T02:45:00.010Z,49.99
2018-09-29T02:47:29.278Z,49.64
2018-09-29T02:49:58.596Z,49.82
2018-09-29T02:52:27.912Z,50.99
2018-09-29T02:54:57.169Z,50.06
2018-09-29T02:57:26.046Z,50.08
2018-09-29T02:59:55.383Z,50.60
2018-09-29T03:02:24.783Z,50.93
2018-09-29T03:04:54.244Z,50.89
2018-09-29T03:07:23.637Z,51.08
2018-09-29T03:09:52.844Z,51.67
2018-09-29T03:12:22.048Z,52.00
2018-09-29T03:14:51.383Z,51.02
2018-09-29T03:17:20.678Z,50.51
2018-09-29T03:19:49.989Z,52.16
2018-09-29T03:22:19.084Z,52.18
2018-09-29T03:24:48.407Z,50.27
2018-09-29T03:27:17.586Z,50.40
2018-09-29T03:29:46.777Z,50.25
2018-09-29T03:32:16.010Z,50.78
2018-09-29T03:34:45.167Z,50.69
2018-09-29T03:37:14.039Z,49.40
2018-09-29T03:39:42.848Z,49.29
2018-09-29T03:42:11.891Z,49.62
2018-09-29T03:44:41.231Z,49.90
2018-09-29T03:47:10.483Z,51.27
2018-09-29T03:49:39.397Z,50.72
2018-09-29T03:52:08.672Z,52.48
2018-09-29T03:54:37.899Z,50.24
2018-09-29T03:57:06.839Z,51.05
2018-09-29T03:59:35.879Z,50.54
2018-09-29T04:02:05.067Z,51.08
2018-09-29T04:04:34.092Z,52.43
2018-09-29T04:07:03.304Z,51.98
2018-09-29T04:09:32.643Z,50.98
2018-09-29T04:12:02.016Z,51.91
2018-09-29T04:14:31.208Z,52.49
2018-09-29T04:17:00.501Z,52.85
2018-09-29T04:19:30.026Z,52.44
2018-09-29T04:21:59.251Z,52.76
2018-09-29T04:24:28.546Z,52.16
2018-09-29T04:26:57.647Z,51.62
2018-09-29T04:29:26.934Z,51.46
2018-09-29T04:31:56.189Z,51.50
2018-09-29T04:34:25.402Z,51.85
2018-09-29T04:36:54.723Z,52.65
2018-09-29T04:39:23.708Z,51.56
2018-09-29T04:41:52.872Z,51.78
2018-09-29T04:44:22.162Z,51.84
2018-09-29T04:46:51.472Z,52.87
2018-09-29T04:49:20.571Z,52.96
2018-09-29T04:51:49.455Z,54.28
2018-09-29T04:54:18.547Z,52.87
2018-09-29T04:56:48.073Z,52.86
2018-09-29T04:59:17.448Z,52.17
2018-09-29T05:01:46.596Z,53.15
2018-09-29T05:04:15.908Z,52.67
2018-09-29T05:06:44.995Z,52.21
2018-09-29T05:09:14.000Z,51.38
2018-09-29T05:11:43.183Z,51.19
2018-09-29T05:14:12.335Z,51.70
2018-09-29T05:16:41.440Z,52.64
2018-09-29T05:19:10.640Z,52.63
2018-09-29T05:21:40.034Z,52.10
2018-09-29T05:24:09.384Z,50.88
2018-09-29T05:26:38.566Z,51.18
2018-09-29T05:29:07.618Z,49.52
2018-09-29T05:31:36.804Z,48.87
2018-09-29T05:34:06.025Z,48.77
2018-09-29T05:36:35.417Z,48.32
2018-09-29T05:39:05.783Z,45.49
2018-09-29T05:41:35.086Z,44.77
2018-09-29T05:44:04.389Z,45.46
2018-09-29T05:46:33.741Z,46.18
2018-09-29T05:49:03.143Z,45.84
2018-09-29T05:51:32.591Z,46.40
2018-09-29T05:54:01.857Z,45.28
2018-09-29T05:56:31.128Z,45.01
2018-09-29T05:59:00.339Z,43.51
2018-09-29T06:01:29.702Z,43.10
2018-09-29T06:03:59.029Z,44.01
2018-09-29T06:06:31.088Z,44.20
2018-09-29T06:09:01.172Z,44.31
2018-09-29T06:11:30.984Z,44.35
2018-09-29T06:14:00.308Z,43.54
2018-09-29T06:16:29.545Z,43.87
2018-09-29T06:18:58.872Z,43.31
2018-09-29T06:21:28.235Z,43.55
2018-09-29T06:23:57.340Z,44.04
2018-09-29T06:26:26.575Z,44.25
2018-09-29T06:28:55.967Z,44.21
2018-09-29T06:31:24.968Z,43.25
2018-09-29T06:33:54.159Z,44.14
2018-09-29T06:36:22.994Z,44.51
2018-09-29T06:38:51.978Z,44.42
2018-09-29T06:41:21.093Z,43.84
2018-09-29T06:43:50.375Z,43.33
2018-09-29T06:46:19.735Z,42.86
2018-09-29T06:48:49.093Z,42.52
2018-09-29T06:51:18.165Z,41.65
2018-09-29T06:53:47.432Z,41.89
2018-09-29T06:56:16.735Z,42.75
2018-09-29T06:58:45.871Z,42.53
2018-09-29T07:01:15.157Z,41.11
2018-09-29T07:03:44.315Z,41.00
2018-09-29T07:06:13.620Z,41.57
2018-09-29T07:08:42.680Z,40.82
2018-09-29T07:11:12.037Z,40.53
2018-09-29T07:13:41.020Z,40.67
2018-09-29T07:16:09.963Z,40.04
2018-09-29T07:18:39.116Z,40.13
2018-09-29T07:21:08.281Z,39.56
2018-09-29T07:23:37.538Z,40.18
2018-09-29T07:26:06.493Z,39.69
2018-09-29T07:28:35.785Z,39.91
2018-09-29T07:31:05.117Z,38.90
2018-09-29T07:33:34.288Z,38.04
2018-09-29T07:36:03.537Z,37.50
2018-09-29T07:38:33.761Z,37.66
2018-09-29T07:41:02.983Z,38.42
2018-09-29T07:43:32.188Z,39.57
2018-09-29T07:46:01.452Z,39.63
2018-09-29T07:48:30.682Z,39.81
2018-09-29T07:50:59.991Z,38.69
2018-09-29T07:53:29.065Z,39.04
2018-09-29T07:55:58.401Z,37.18
2018-09-29T07:58:27.730Z,37.33
2018-09-29T08:00:57.043Z,37.33
2018-09-29T08:03:26.242Z,37.74
2018-09-29T08:05:55.613Z,37.66
2018-09-29T08:08:24.781Z,37.38
2018-09-29T08:10:53.739Z,36.79
2018-09-29T08:13:22.632Z,37.07
2018-09-29T08:15:51.709Z,37.65
2018-09-29T08:18:20.938Z,36.71
2018-09-29T08:20:50.295Z,35.97
2018-09-29T08:23:19.434Z,35.87
2018-09-29T08:25:49.531Z,34.66
2018-09-29T08:28:18.433Z,33.92
2018-09-29T08:30:47.439Z,34.66
2018-09-29T08:33:16.696Z,34.39
2018-09-29T08:35:45.992Z,34.92
2018-09-29T08:38:15.223Z,33.33
2018-09-29T08:40:45.107Z,33.24
2018-09-29T08:43:14.204Z,32.80
2018-09-29T08:45:43.547Z,32.49
2018-09-29T08:48:12.889Z,32.59
2018-09-29T08:50:41.877Z,31.58
2018-09-29T08:53:11.120Z,32.04
2018-09-29T08:55:40.335Z,31.87
2018-09-29T08:58:09.619Z,31.52
2018-09-29T09:00:38.994Z,32.24
2018-09-29T09:03:07.991Z,33.16
2018-09-29T09:05:37.143Z,32.89
2018-09-29T09:08:06.196Z,32.85
2018-09-29T09:10:35.220Z,31.80
2018-09-29T09:13:05.325Z,32.50
2018-09-29T09:15:34.396Z,31.77
2018-09-29T09:18:03.715Z,31.93
2018-09-29T09:20:32.951Z,32.82
2018-09-29T09:23:02.531Z,32.63
2018-09-29T09:25:31.731Z,32.72
2018-09-29T09:28:00.741Z,32.46
2018-09-29T09:30:30.029Z,33.17
2018-09-29T09:32:59.243Z,33.07
2018-09-29T09:35:28.556Z,32.87
2018-09-29T09:37:57.482Z,32.90
2018-09-29T09:40:26.839Z,33.38
2018-09-29T09:42:55.702Z,33.51
2018-09-29T09:45:24.680Z,33.69
2018-09-29T09:47:53.615Z,32.58
2018-09-29T09:50:22.938Z,32.90
2018-09-29T09:52:52.104Z,32.00
2018-09-29T09:55:21.060Z,32.30
2018-09-29T09:57:50.427Z,30.62
2018-09-29T10:00:19.735Z,30.48
2018-09-29T10:03:57.717Z,29.81
2018-09-29T10:06:27.040Z,30.28
2018-09-29T10:08:56.295Z,29.80
2018-09-29T10:11:25.529Z,28.87
2018-09-29T10:13:54.749Z,28.45
2018-09-29T10:16:24.723Z,28.31
2018-09-29T10:18:53.645Z,28.16
2018-09-29T10:21:22.539Z,28.23
2018-09-29T10:23:51.863Z,28.73
2018-09-29T10:26:21.192Z,30.21
2018-09-29T10:28:50.644Z,29.17
2018-09-29T10:31:19.575Z,29.03
2018-09-29T10:33:48.951Z,30.16
2018-09-29T10:36:18.344Z,30.09
2018-09-29T10:38:47.499Z,31.06
2018-09-29T10:41:16.751Z,30.09
2018-09-29T10:43:45.731Z,29.75
2018-09-29T10:46:15.041Z,31.45
2018-09-29T10:48:44.376Z,31.02
2018-09-29T10:51:13.626Z,31.03
2018-09-29T10:53:42.739Z,30.91
2018-09-29T10:56:11.998Z,30.43
2018-09-29T10:58:41.240Z,29.89
2018-09-29T11:01:10.192Z,29.91
2018-09-29T11:03:39.311Z,31.32
2018-09-29T11:06:08.603Z,32.00
2018-09-29T11:08:37.760Z,33.37
2018-09-29T11:11:07.162Z,33.44
2018-09-29T11:13:36.439Z,32.18
2018-09-29T11:16:05.500Z,31.60
2018-09-29T11:18:34.379Z,32.78
2018-09-29T11:21:03.546Z,32.68
2018-09-29T11:23:32.729Z,30.50
2018-09-29T11:26:02.133Z,32.62
2018-09-29T11:28:31.476Z,33.73
2018-09-29T11:31:00.935Z,33.58
2018-09-29T11:33:30.030Z,32.74
2018-09-29T11:35:59.418Z,32.20
2018-09-29T11:38:28.829Z,32.21
2018-09-29T11:40:58.241Z,34.00
2018-09-29T11:43:28.352Z,32.27
2018-09-29T11:45:57.979Z,31.36
2018-09-29T11:48:27.232Z,33.17
2018-09-29T11:50:57.197Z,32.94
2018-09-29T11:53:26.694Z,34.32
2018-09-29T11:55:56.598Z,33.93
2018-09-29T11:58:25.681Z,33.66
2018-09-29T12:00:55.094Z,34.46
2018-09-29T12:03:24.565Z,34.13
2018-09-29T12:05:53.852Z,35.98
2018-09-29T12:08:23.095Z,38.46
2018-09-29T12:10:52.142Z,37.26
2018-09-29T12:13:21.373Z,35.70
2018-09-29T12:15:50.740Z,36.28
2018-09-29T12:18:20.087Z,36.36
2018-09-29T12:20:49.392Z,38.12
2018-09-29T12:23:18.882Z,35.60
2018-09-29T12:25:47.779Z,34.21
2018-09-29T12:28:17.162Z,34.90
2018-09-29T12:30:46.267Z,33.71
2018-09-29T12:33:15.542Z,35.51
2018-09-29T12:35:45.089Z,36.35
2018-09-29T12:38:14.427Z,35.50
2018-09-29T12:40:43.384Z,36.96
2018-09-29T12:43:12.411Z,37.02
2018-09-29T12:45:41.758Z,38.50
2018-09-29T12:48:11.003Z,38.07
2018-09-29T12:50:40.252Z,40.55
2018-09-29T12:53:09.717Z,38.30
2018-09-29T12:55:38.977Z,37.88
2018-09-29T12:58:08.130Z,39.73
2018-09-29T13:00:37.363Z,38.63
2018-09-29T13:03:06.703Z,38.37
2018-09-29T13:05:35.796Z,39.06
2018-09-29T13:08:06.072Z,39.89
2018-09-29T13:10:35.399Z,39.46
2018-09-29T13:13:04.574Z,39.38
2018-09-29T13:15:33.827Z,39.70
2018-09-29T13:18:02.959Z,38.93
2018-09-29T13:20:32.195Z,39.71
2018-09-29T13:23:01.176Z,39.82
2018-09-29T13:25:30.219Z,40.49
2018-09-29T13:27:59.543Z,40.66
2018-09-29T13:30:29.044Z,41.25
2018-09-29T13:32:58.083Z,41.15
2018-09-29T13:35:27.172Z,40.58
2018-09-29T13:37:56.314Z,41.71
2018-09-29T13:40:25.687Z,41.52
2018-09-29T13:42:54.790Z,43.07
2018-09-29T13:45:24.205Z,42.73
2018-09-29T13:47:53.587Z,42.37
2018-09-29T13:50:22.599Z,41.98
2018-09-29T13:52:52.028Z,41.82
2018-09-29T13:55:21.073Z,43.48
2018-09-29T13:57:50.402Z,41.83
2018-09-29T14:00:19.719Z,40.79
2018-09-29T14:02:49.052Z,42.01
2018-09-29T14:05:18.387Z,41.64
2018-09-29T14:07:47.570Z,41.05
2018-09-29T14:10:16.771Z,42.43
2018-09-29T14:12:45.707Z,41.66
2018-09-29T14:15:14.647Z,41.83
2018-09-29T14:17:43.971Z,42.00
2018-09-29T14:20:13.208Z,42.41
2018-09-29T14:22:42.291Z,42.69
2018-09-29T14:25:11.735Z,42.96
2018-09-29T14:27:41.012Z,42.65
2018-09-29T14:30:10.352Z,42.53
2018-09-29T14:32:39.760Z,43.16
2018-09-29T14:35:09.076Z,43.26
2018-09-29T14:37:38.231Z,43.47
2018-09-29T14:40:07.789Z,41.33
2018-09-29T14:42:37.141Z,41.48
2018-09-29T14:45:06.499Z,41.50
2018-09-29T14:47:35.721Z,42.61
2018-09-29T14:50:05.192Z,43.00
2018-09-29T14:52:34.117Z,43.57
2018-09-29T14:55:03.383Z,41.84
2018-09-29T14:57:33.660Z,42.76
2018-09-29T15:00:03.671Z,40.94
2018-09-29T15:02:32.815Z,41.27
2018-09-29T15:05:02.264Z,42.10
2018-09-29T15:07:32.219Z,42.89
2018-09-29T15:10:01.471Z,44.27
2018-09-29T15:12:30.627Z,44.99
2018-09-29T15:15:00.158Z,45.08
2018-09-29T15:17:29.067Z,45.37
2018-09-29T15:19:58.334Z,46.75
2018-09-29T15:22:27.310Z,47.34
2018-09-29T15:24:56.610Z,46.77
2018-09-29T15:27:26.116Z,48.72
2018-09-29T15:29:55.369Z,50.19
2018-09-29T15:32:24.617Z,49.74
2018-09-29T15:34:54.494Z,49.55
2018-09-29T15:37:23.475Z,48.50
2018-09-29T15:39:53.792Z,48.25
2018-09-29T15:42:23.092Z,47.75
2018-09-29T15:44:52.281Z,46.21
2018-09-29T15:47:21.519Z,48.37
2018-09-29T15:49:50.757Z,46.22
2018-09-29T15:52:20.134Z,48.65
2018-09-29T15:54:49.529Z,47.22
2018-09-29T15:57:23.219Z,46.62
2018-09-29T15:59:52.904Z,47.67
2018-09-29T16:02:22.200Z,47.97
2018-09-29T16:04:51.395Z,48.95
2018-09-29T16:07:20.951Z,49.57
2018-09-29T16:09:51.031Z,49.78
2018-09-29T16:12:20.576Z,49.73
2018-09-29T16:14:49.944Z,51.26
2018-09-29T16:17:19.153Z,50.77
2018-09-29T16:19:48.677Z,49.76
2018-09-29T16:22:17.887Z,50.52
2018-09-29T16:24:47.156Z,50.37
2018-09-29T16:27:16.111Z,50.74
2018-09-29T16:29:45.167Z,51.16
2018-09-29T16:32:14.483Z,50.27
2018-09-29T16:34:43.519Z,51.26
2018-09-29T16:37:12.623Z,51.26
2018-09-29T16:39:42.608Z,51.47
2018-09-29T16:42:12.525Z,49.02
2018-09-29T16:44:41.847Z,47.01
2018-09-29T16:47:11.168Z,49.44
2018-09-29T16:49:40.685Z,47.17
2018-09-29T16:52:10.015Z,48.42
2018-09-29T16:54:39.247Z,47.29
2018-09-29T16:57:08.664Z,46.55
2018-09-29T16:59:38.284Z,47.45
2018-09-29T17:02:07.478Z,48.52
2018-09-29T17:04:37.071Z,48.98
2018-09-29T17:07:06.467Z,49.48
2018-09-29T17:09:35.475Z,49.15
2018-09-29T17:12:05.018Z,50.00
2018-09-29T17:14:35.016Z,50.17
2018-09-29T17:17:05.783Z,50.57
2018-09-29T17:19:34.975Z,50.55
2018-09-29T17:22:04.205Z,51.12
2018-09-29T17:24:33.656Z,50.94
2018-09-29T17:27:03.211Z,51.60
2018-09-29T17:29:32.533Z,51.60
2018-09-29T17:32:01.822Z,50.88
2018-09-29T17:34:31.244Z,51.28
2018-09-29T17:37:01.645Z,50.80
2018-09-29T17:39:30.905Z,52.34
2018-09-29T17:42:01.729Z,51.96
2018-09-29T17:44:35.829Z,52.36
2018-09-29T17:47:06.263Z,52.00
2018-09-29T17:49:36.409Z,52.40
2018-09-29T17:52:06.642Z,52.27
2018-09-29T17:54:36.267Z,52.31
2018-09-29T17:57:07.243Z,51.53
2018-09-29T17:59:36.807Z,52.30
2018-09-29T18:02:06.520Z,52.92
2018-09-29T18:04:39.942Z,53.09
2018-09-29T18:07:12.418Z,52.03
2018-09-29T18:09:42.311Z,52.79
2018-09-29T18:12:16.729Z,53.24
2018-09-29T18:14:47.473Z,53.09
2018-09-29T18:17:16.869Z,52.71
2018-09-29T18:19:46.780Z,51.81
2018-09-29T18:22:16.852Z,51.47
2018-09-29T18:24:46.855Z,52.53
2018-09-29T18:27:16.310Z,52.87
2018-09-29T18:29:45.718Z,52.70
2018-09-29T18:32:19.026Z,52.97
2018-09-29T18:34:49.635Z,52.92
2018-09-29T18:37:20.167Z,53.13
2018-09-29T18:39:49.503Z,52.06
2018-09-29T18:42:18.967Z,49.68
2018-09-29T18:44:48.785Z,50.78
2018-09-29T18:47:18.176Z,51.31
2018-09-29T18:49:52.779Z,51.54
2018-09-29T18:52:24.916Z,51.53
2018-09-29T18:54:55.350Z,51.55
2018-09-29T18:57:24.593Z,51.44
2018-09-29T18:59:53.908Z,52.08
2018-09-29T19:02:23.213Z,52.74
2018-09-29T19:04:52.402Z,52.99
2018-09-29T19:07:21.767Z,53.71
2018-09-29T19:09:50.955Z,51.29
2018-09-29T19:12:20.052Z,52.42
2018-09-29T19:14:49.249Z,52.64
2018-09-29T19:17:18.191Z,52.28
2018-09-29T19:19:47.589Z,52.61
2018-09-29T19:22:16.928Z,51.81
2018-09-29T19:24:45.899Z,53.03
2018-09-29T19:27:15.116Z,53.17
2018-09-29T19:29:44.501Z,53.02
2018-09-29T19:32:13.547Z,51.38
2018-09-29T19:34:43.199Z,51.66
2018-09-29T19:37:12.440Z,51.52
2018-09-29T19:39:41.893Z,51.77
2018-09-29T19:42:10.848Z,51.80
2018-09-29T19:44:39.752Z,53.16
2018-09-29T19:47:08.742Z,52.21
2018-09-29T19:49:37.950Z,53.17
2018-09-29T19:52:06.944Z,52.91
2018-09-29T19:54:36.444Z,52.37
2018-09-29T19:57:05.835Z,52.11
2018-09-29T19:59:34.725Z,52.06
2018-09-29T20:02:04.004Z,52.70
2018-09-29T20:04:33.174Z,52.82
2018-09-29T20:07:02.427Z,53.85
2018-09-29T20:09:31.719Z,52.80
2018-09-29T20:12:00.823Z,53.80
2018-09-29T20:14:29.701Z,54.08
2018-09-29T20:16:58.631Z,54.11
2018-09-29T20:19:27.993Z,53.64
2018-09-29T20:21:57.209Z,54.01
2018-09-29T20:24:26.179Z,53.67
2018-09-29T20:26:55.338Z,54.29
2018-09-29T20:29:24.288Z,54.50
2018-09-29T20:31:53.466Z,53.87
2018-09-29T20:34:22.728Z,54.07
2018-09-29T20:36:51.869Z,53.95
2018-09-29T20:39:21.195Z,54.39
2018-09-29T20:41:50.181Z,53.51
2018-09-29T20:44:19.163Z,53.58
2018-09-29T20:46:48.291Z,53.34
2018-09-29T20:49:17.557Z,52.89
2018-09-29T20:51:46.603Z,53.04
2018-09-29T20:54:15.887Z,52.14
2018-09-29T20:56:44.928Z,51.32
2018-09-29T20:59:13.998Z,50.31
2018-09-29T21:01:43.407Z,49.81
2018-09-29T21:04:12.611Z,50.83
2018-09-29T21:06:41.873Z,52.03
2018-09-29T21:09:11.107Z,53.28
2018-09-29T21:11:40.380Z,52.15
2018-09-29T21:14:09.942Z,52.63
2018-09-29T21:16:38.935Z,49.86
2018-09-29T21:19:08.208Z,51.82
2018-09-29T21:21:37.400Z,52.27
2018-09-29T21:24:06.502Z,52.14
2018-09-29T21:26:35.640Z,52.52
2018-09-29T21:29:04.900Z,51.99
2018-09-29T21:31:34.395Z,51.96
2018-09-29T21:34:03.738Z,52.66
2018-09-29T21:36:32.956Z,51.72
2018-09-29T21:39:02.159Z,51.97
2018-09-29T21:41:31.480Z,52.89
2018-09-29T21:44:00.483Z,52.21
2018-09-29T21:46:29.688Z,50.66
2018-09-29T21:48:58.951Z,50.53
2018-09-29T21:51:28.226Z,51.04
2018-09-29T21:53:57.578Z,52.47
2018-09-29T21:56:26.979Z,53.04
2018-09-29T21:58:55.915Z,52.25
2018-09-29T22:01:32.030Z,51.03
2018-09-29T22:04:02.218Z,52.36
2018-09-29T22:06:31.535Z,53.36
2018-09-29T22:09:00.922Z,53.64
2018-09-29T22:11:30.228Z,53.33
2018-09-29T22:13:59.447Z,53.96
2018-09-29T22:16:28.563Z,54.23
2018-09-29T22:18:58.104Z,55.40
2018-09-29T22:21:27.368Z,54.59
2018-09-29T22:23:56.467Z,54.29
2018-09-29T22:26:25.624Z,54.05
2018-09-29T22:28:54.922Z,54.47
2018-09-29T22:31:24.083Z,55.64
2018-09-29T22:33:53.257Z,55.01
2018-09-29T22:36:22.219Z,55.46
2018-09-29T22:38:51.124Z,55.73
2018-09-29T22:41:20.151Z,54.83
2018-09-29T22:43:49.095Z,55.21
2018-09-29T22:46:18.443Z,54.91
2018-09-29T22:48:47.743Z,55.12
2018-09-29T22:51:16.689Z,56.04
2018-09-29T22:53:45.616Z,56.00
2018-09-29T22:56:14.893Z,54.64
2018-09-29T22:58:43.911Z,55.03
2018-09-29T23:01:13.168Z,54.57
2018-09-29T23:03:42.407Z,54.22
2018-09-29T23:06:11.708Z,52.47
2018-09-29T23:08:40.828Z,53.72
2018-09-29T23:11:10.012Z,53.89
2018-09-29T23:13:39.189Z,53.38
2018-09-29T23:16:08.395Z,53.29
2018-09-29T23:18:37.720Z,53.27
2018-09-29T23:21:07.354Z,53.80
2018-09-29T23:23:36.495Z,54.23
2018-09-29T23:26:05.701Z,54.44
2018-09-29T23:28:34.792Z,53.39
2018-09-29T23:31:03.837Z,53.66
2018-09-29T23:33:33.223Z,53.15
2018-09-29T23:36:02.448Z,52.83
2018-09-29T23:38:31.651Z,53.27
2018-09-29T23:41:01.101Z,52.81
2018-09-29T23:43:29.984Z,52.42
2018-09-29T23:45:59.271Z,53.10
2018-09-29T23:48:28.303Z,54.80
2018-09-29T23:50:57.614Z,54.19
2018-09-29T23:53:26.912Z,53.94
2018-09-29T23:55:56.112Z,54.22
2018-09-29T23:58:25.352Z,54.49
